sensor_id;sensor_type;location;lat;lon;timestamp;temperature;humidity
10316;DHT22;5203;48.976;8.306;2023-06-04T00:00:23;20.90;42.20
10316;DHT22;5203;48.976;8.306;2023-06-04T00:02:51;20.70;41.80
10316;DHT22;5203;48.976;8.306;2023-06-04T00:05:17;20.80;42.10
10316;DHT22;5203;48.976;8.306;2023-06-04T00:07:43;20.80;43.30
10316;DHT22;5203;48.976;8.306;2023-06-04T00:10:09;20.70;42.60
10316;DHT22;5203;48.976;8.306;2023-06-04T00:12:35;20.60;43.30
10316;DHT22;5203;48.976;8.306;2023-06-04T00:15:01;20.50;42.50
10316;DHT22;5203;48.976;8.306;2023-06-04T00:17:27;20.50;43.20
10316;DHT22;5203;48.976;8.306;2023-06-04T00:19:52;20.40;43.70
10316;DHT22;5203;48.976;8.306;2023-06-04T00:22:18;20.40;43.20
10316;DHT22;5203;48.976;8.306;2023-06-04T00:24:44;20.20;42.90
10316;DHT22;5203;48.976;8.306;2023-06-04T00:27:09;20.20;43.00
10316;DHT22;5203;48.976;8.306;2023-06-04T00:29:35;20.10;43.00
10316;DHT22;5203;48.976;8.306;2023-06-04T00:32:02;20.20;42.70
10316;DHT22;5203;48.976;8.306;2023-06-04T00:34:28;20.10;42.70
10316;DHT22;5203;48.976;8.306;2023-06-04T00:36:54;20.10;42.50
10316;DHT22;5203;48.976;8.306;2023-06-04T00:39:20;20.10;42.50
10316;DHT22;5203;48.976;8.306;2023-06-04T00:41:46;20.10;42.70
10316;DHT22;5203;48.976;8.306;2023-06-04T00:44:11;20.10;43.10
10316;DHT22;5203;48.976;8.306;2023-06-04T00:46:37;20.00;42.60
10316;DHT22;5203;48.976;8.306;2023-06-04T00:49:05;19.90;42.50
10316;DHT22;5203;48.976;8.306;2023-06-04T00:51:31;19.90;43.20
10316;DHT22;5203;48.976;8.306;2023-06-04T00:53:58;20.00;42.30
10316;DHT22;5203;48.976;8.306;2023-06-04T00:56:24;20.00;42.30
10316;DHT22;5203;48.976;8.306;2023-06-04T00:58:50;19.90;42.10
10316;DHT22;5203;48.976;8.306;2023-06-04T01:03:47;19.80;41.90
10316;DHT22;5203;48.976;8.306;2023-06-04T01:08:50;19.70;42.10
10316;DHT22;5203;48.976;8.306;2023-06-04T01:11:31;19.70;41.90
10316;DHT22;5203;48.976;8.306;2023-06-04T01:13:56;19.60;42.30
10316;DHT22;5203;48.976;8.306;2023-06-04T01:16:22;19.50;42.20
10316;DHT22;5203;48.976;8.306;2023-06-04T01:18:49;19.50;42.20
10316;DHT22;5203;48.976;8.306;2023-06-04T01:21:16;19.60;42.00
10316;DHT22;5203;48.976;8.306;2023-06-04T01:23:50;19.50;41.40
10316;DHT22;5203;48.976;8.306;2023-06-04T01:26:29;19.40;41.10
10316;DHT22;5203;48.976;8.306;2023-06-04T01:28:55;19.20;41.40
10316;DHT22;5203;48.976;8.306;2023-06-04T01:31:22;19.20;41.50
10316;DHT22;5203;48.976;8.306;2023-06-04T01:33:55;19.20;41.50
10316;DHT22;5203;48.976;8.306;2023-06-04T01:36:24;19.00;41.40
10316;DHT22;5203;48.976;8.306;2023-06-04T01:38:50;18.90;41.90
10316;DHT22;5203;48.976;8.306;2023-06-04T01:41:16;18.90;41.50
10316;DHT22;5203;48.976;8.306;2023-06-04T01:43:42;18.80;41.40
10316;DHT22;5203;48.976;8.306;2023-06-04T01:46:08;18.70;41.70
10316;DHT22;5203;48.976;8.306;2023-06-04T01:48:34;18.70;41.60
10316;DHT22;5203;48.976;8.306;2023-06-04T01:51:00;18.70;41.40
10316;DHT22;5203;48.976;8.306;2023-06-04T01:53:26;18.60;41.60
10316;DHT22;5203;48.976;8.306;2023-06-04T01:55:51;18.50;41.50
10316;DHT22;5203;48.976;8.306;2023-06-04T01:58:18;18.60;41.50
10316;DHT22;5203;48.976;8.306;2023-06-04T02:00:48;18.60;41.10
10316;DHT22;5203;48.976;8.306;2023-06-04T02:03:15;18.60;40.90
10316;DHT22;5203;48.976;8.306;2023-06-04T02:05:41;18.70;40.70
10316;DHT22;5203;48.976;8.306;2023-06-04T02:08:10;18.70;40.60
10316;DHT22;5203;48.976;8.306;2023-06-04T02:10:36;18.70;40.70
10316;DHT22;5203;48.976;8.306;2023-06-04T02:13:03;18.70;40.10
10316;DHT22;5203;48.976;8.306;2023-06-04T02:15:30;18.70;40.30
10316;DHT22;5203;48.976;8.306;2023-06-04T02:18:14;18.70;40.30
10316;DHT22;5203;48.976;8.306;2023-06-04T02:20:45;18.40;40.50
10316;DHT22;5203;48.976;8.306;2023-06-04T02:23:11;18.40;40.90
10316;DHT22;5203;48.976;8.306;2023-06-04T02:25:37;18.50;40.50
10316;DHT22;5203;48.976;8.306;2023-06-04T02:28:03;18.40;41.50
10316;DHT22;5203;48.976;8.306;2023-06-04T02:30:28;18.40;40.70
10316;DHT22;5203;48.976;8.306;2023-06-04T02:32:54;18.30;40.50
10316;DHT22;5203;48.976;8.306;2023-06-04T02:35:21;18.10;41.10
10316;DHT22;5203;48.976;8.306;2023-06-04T02:37:48;18.10;41.30
10316;DHT22;5203;48.976;8.306;2023-06-04T02:40:14;18.10;41.20
10316;DHT22;5203;48.976;8.306;2023-06-04T02:42:40;18.10;40.90
10316;DHT22;5203;48.976;8.306;2023-06-04T02:45:06;18.00;41.00
10316;DHT22;5203;48.976;8.306;2023-06-04T02:47:32;18.00;41.10
10316;DHT22;5203;48.976;8.306;2023-06-04T02:49:57;17.90;41.00
10316;DHT22;5203;48.976;8.306;2023-06-04T02:52:23;17.90;41.00
10316;DHT22;5203;48.976;8.306;2023-06-04T02:54:51;17.80;40.90
10316;DHT22;5203;48.976;8.306;2023-06-04T02:57:16;17.90;40.90
10316;DHT22;5203;48.976;8.306;2023-06-04T02:59:42;17.90;40.80
10316;DHT22;5203;48.976;8.306;2023-06-04T03:02:08;18.00;40.80
10316;DHT22;5203;48.976;8.306;2023-06-04T03:04:33;18.00;41.90
10316;DHT22;5203;48.976;8.306;2023-06-04T03:07:03;18.00;40.60
10316;DHT22;5203;48.976;8.306;2023-06-04T03:09:32;18.10;40.40
10316;DHT22;5203;48.976;8.306;2023-06-04T03:12:03;18.00;40.20
10316;DHT22;5203;48.976;8.306;2023-06-04T03:14:29;18.10;40.50
10316;DHT22;5203;48.976;8.306;2023-06-04T03:17:01;18.10;40.20
10316;DHT22;5203;48.976;8.306;2023-06-04T03:19:37;18.00;40.50
10316;DHT22;5203;48.976;8.306;2023-06-04T03:22:04;18.00;40.70
10316;DHT22;5203;48.976;8.306;2023-06-04T03:24:41;18.00;40.50
10316;DHT22;5203;48.976;8.306;2023-06-04T03:27:08;17.90;40.70
10316;DHT22;5203;48.976;8.306;2023-06-04T03:29:34;17.80;40.90
10316;DHT22;5203;48.976;8.306;2023-06-04T03:32:01;17.70;41.40
10316;DHT22;5203;48.976;8.306;2023-06-04T03:34:27;17.60;41.50
10316;DHT22;5203;48.976;8.306;2023-06-04T03:36:53;17.50;42.00
10316;DHT22;5203;48.976;8.306;2023-06-04T03:39:20;17.50;42.10
10316;DHT22;5203;48.976;8.306;2023-06-04T03:41:45;17.50;42.40
10316;DHT22;5203;48.976;8.306;2023-06-04T03:44:17;17.40;42.70
10316;DHT22;5203;48.976;8.306;2023-06-04T03:46:44;17.40;42.80
10316;DHT22;5203;48.976;8.306;2023-06-04T03:49:10;17.50;42.70
10316;DHT22;5203;48.976;8.306;2023-06-04T03:51:37;17.50;42.70
10316;DHT22;5203;48.976;8.306;2023-06-04T03:54:03;17.50;42.50
10316;DHT22;5203;48.976;8.306;2023-06-04T03:56:29;17.50;42.70
10316;DHT22;5203;48.976;8.306;2023-06-04T03:58:55;17.40;42.70
10316;DHT22;5203;48.976;8.306;2023-06-04T04:01:21;17.40;43.00
10316;DHT22;5203;48.976;8.306;2023-06-04T04:03:46;17.30;43.60
10316;DHT22;5203;48.976;8.306;2023-06-04T04:06:15;17.30;43.90
10316;DHT22;5203;48.976;8.306;2023-06-04T04:08:41;17.20;44.10
10316;DHT22;5203;48.976;8.306;2023-06-04T04:11:11;17.10;44.40
10316;DHT22;5203;48.976;8.306;2023-06-04T04:13:36;17.10;45.20
10316;DHT22;5203;48.976;8.306;2023-06-04T04:16:02;17.20;44.40
10316;DHT22;5203;48.976;8.306;2023-06-04T04:18:31;17.20;44.20
10316;DHT22;5203;48.976;8.306;2023-06-04T04:20:57;17.10;44.40
10316;DHT22;5203;48.976;8.306;2023-06-04T04:23:23;17.10;44.50
10316;DHT22;5203;48.976;8.306;2023-06-04T04:25:48;17.10;44.50
10316;DHT22;5203;48.976;8.306;2023-06-04T04:28:14;17.10;44.90
10316;DHT22;5203;48.976;8.306;2023-06-04T04:30:42;16.90;45.40
10316;DHT22;5203;48.976;8.306;2023-06-04T04:33:09;16.90;45.70
10316;DHT22;5203;48.976;8.306;2023-06-04T04:35:36;16.90;45.70
10316;DHT22;5203;48.976;8.306;2023-06-04T04:38:02;16.90;45.70
10316;DHT22;5203;48.976;8.306;2023-06-04T04:40:29;16.80;45.60
10316;DHT22;5203;48.976;8.306;2023-06-04T04:42:55;16.80;45.40
10316;DHT22;5203;48.976;8.306;2023-06-04T04:45:21;16.90;45.40
10316;DHT22;5203;48.976;8.306;2023-06-04T04:47:47;17.00;44.80
10316;DHT22;5203;48.976;8.306;2023-06-04T04:50:13;16.90;45.20
10316;DHT22;5203;48.976;8.306;2023-06-04T04:52:39;16.80;44.50
10316;DHT22;5203;48.976;8.306;2023-06-04T04:55:05;16.80;45.00
10316;DHT22;5203;48.976;8.306;2023-06-04T04:57:32;16.80;44.70
10316;DHT22;5203;48.976;8.306;2023-06-04T04:59:57;16.70;45.00
10316;DHT22;5203;48.976;8.306;2023-06-04T05:02:23;16.60;44.90
10316;DHT22;5203;48.976;8.306;2023-06-04T05:04:49;16.60;44.40
10316;DHT22;5203;48.976;8.306;2023-06-04T05:07:14;16.80;44.00
10316;DHT22;5203;48.976;8.306;2023-06-04T05:09:40;16.70;44.00
10316;DHT22;5203;48.976;8.306;2023-06-04T05:12:06;16.70;43.70
10316;DHT22;5203;48.976;8.306;2023-06-04T05:14:34;16.70;43.70
10316;DHT22;5203;48.976;8.306;2023-06-04T05:17:01;16.70;43.40
10316;DHT22;5203;48.976;8.306;2023-06-04T05:19:28;16.80;43.40
10316;DHT22;5203;48.976;8.306;2023-06-04T05:21:55;16.90;43.40
10316;DHT22;5203;48.976;8.306;2023-06-04T05:24:21;16.80;43.40
10316;DHT22;5203;48.976;8.306;2023-06-04T05:26:46;16.80;43.70
10316;DHT22;5203;48.976;8.306;2023-06-04T05:29:13;16.80;43.10
10316;DHT22;5203;48.976;8.306;2023-06-04T05:31:39;16.70;43.40
10316;DHT22;5203;48.976;8.306;2023-06-04T05:34:05;16.70;43.80
10316;DHT22;5203;48.976;8.306;2023-06-04T05:36:31;16.70;43.60
10316;DHT22;5203;48.976;8.306;2023-06-04T05:38:56;16.70;43.40
10316;DHT22;5203;48.976;8.306;2023-06-04T05:41:26;16.80;43.50
10316;DHT22;5203;48.976;8.306;2023-06-04T05:43:52;16.70;43.80
10316;DHT22;5203;48.976;8.306;2023-06-04T05:46:18;16.70;43.90
10316;DHT22;5203;48.976;8.306;2023-06-04T05:48:44;16.80;44.20
10316;DHT22;5203;48.976;8.306;2023-06-04T05:51:13;16.90;43.30
10316;DHT22;5203;48.976;8.306;2023-06-04T05:53:38;16.90;43.70
10316;DHT22;5203;48.976;8.306;2023-06-04T05:56:04;17.00;43.60
10316;DHT22;5203;48.976;8.306;2023-06-04T05:58:32;16.90;43.20
10316;DHT22;5203;48.976;8.306;2023-06-04T06:00:57;17.00;43.40
10316;DHT22;5203;48.976;8.306;2023-06-04T06:03:23;17.20;43.70
10316;DHT22;5203;48.976;8.306;2023-06-04T06:05:48;17.20;43.20
10316;DHT22;5203;48.976;8.306;2023-06-04T06:08:14;17.20;44.00
10316;DHT22;5203;48.976;8.306;2023-06-04T06:10:40;17.40;42.10
10316;DHT22;5203;48.976;8.306;2023-06-04T06:13:06;17.40;41.40
10316;DHT22;5203;48.976;8.306;2023-06-04T06:15:31;17.40;41.70
10316;DHT22;5203;48.976;8.306;2023-06-04T06:17:58;17.40;41.70
10316;DHT22;5203;48.976;8.306;2023-06-04T06:20:25;17.50;41.80
10316;DHT22;5203;48.976;8.306;2023-06-04T06:22:51;17.50;42.20
10316;DHT22;5203;48.976;8.306;2023-06-04T06:25:17;17.50;42.10
10316;DHT22;5203;48.976;8.306;2023-06-04T06:27:42;17.50;42.20
10316;DHT22;5203;48.976;8.306;2023-06-04T06:30:08;17.50;42.20
10316;DHT22;5203;48.976;8.306;2023-06-04T06:32:34;17.60;41.40
10316;DHT22;5203;48.976;8.306;2023-06-04T06:35:01;17.70;41.20
10316;DHT22;5203;48.976;8.306;2023-06-04T06:37:26;17.80;41.70
10316;DHT22;5203;48.976;8.306;2023-06-04T06:39:52;17.80;41.80
10316;DHT22;5203;48.976;8.306;2023-06-04T06:42:18;17.90;41.00
10316;DHT22;5203;48.976;8.306;2023-06-04T06:44:44;18.10;40.70
10316;DHT22;5203;48.976;8.306;2023-06-04T06:47:10;18.30;41.20
10316;DHT22;5203;48.976;8.306;2023-06-04T06:49:39;18.30;40.20
10316;DHT22;5203;48.976;8.306;2023-06-04T06:52:05;18.40;39.80
10316;DHT22;5203;48.976;8.306;2023-06-04T06:54:31;18.40;40.00
10316;DHT22;5203;48.976;8.306;2023-06-04T06:56:56;18.40;39.90
10316;DHT22;5203;48.976;8.306;2023-06-04T06:59:23;18.40;39.80
10316;DHT22;5203;48.976;8.306;2023-06-04T07:01:48;18.50;40.00
10316;DHT22;5203;48.976;8.306;2023-06-04T07:04:14;18.60;39.90
10316;DHT22;5203;48.976;8.306;2023-06-04T07:06:40;18.70;39.90
10316;DHT22;5203;48.976;8.306;2023-06-04T07:09:05;18.80;39.80
10316;DHT22;5203;48.976;8.306;2023-06-04T07:11:31;19.00;39.90
10316;DHT22;5203;48.976;8.306;2023-06-04T07:13:57;19.00;39.70
10316;DHT22;5203;48.976;8.306;2023-06-04T07:16:23;19.20;39.40
10316;DHT22;5203;48.976;8.306;2023-06-04T07:18:48;19.20;39.20
10316;DHT22;5203;48.976;8.306;2023-06-04T07:21:15;19.20;39.00
10316;DHT22;5203;48.976;8.306;2023-06-04T07:23:41;19.30;39.00
10316;DHT22;5203;48.976;8.306;2023-06-04T07:26:09;19.40;38.70
10316;DHT22;5203;48.976;8.306;2023-06-04T07:28:34;19.50;38.80
10316;DHT22;5203;48.976;8.306;2023-06-04T07:31:00;19.60;38.20
10316;DHT22;5203;48.976;8.306;2023-06-04T07:33:26;19.70;38.00
10316;DHT22;5203;48.976;8.306;2023-06-04T07:35:52;19.80;37.30
10316;DHT22;5203;48.976;8.306;2023-06-04T07:38:17;19.90;38.10
10316;DHT22;5203;48.976;8.306;2023-06-04T07:40:45;20.10;38.10
10316;DHT22;5203;48.976;8.306;2023-06-04T07:43:11;20.10;37.90
10316;DHT22;5203;48.976;8.306;2023-06-04T07:45:36;20.30;37.10
10316;DHT22;5203;48.976;8.306;2023-06-04T07:48:02;20.50;37.60
10316;DHT22;5203;48.976;8.306;2023-06-04T07:50:28;20.80;37.00
10316;DHT22;5203;48.976;8.306;2023-06-04T07:52:53;21.00;36.50
10316;DHT22;5203;48.976;8.306;2023-06-04T07:55:19;20.80;36.70
10316;DHT22;5203;48.976;8.306;2023-06-04T07:57:45;20.80;36.80
10316;DHT22;5203;48.976;8.306;2023-06-04T08:00:11;21.00;36.70
10316;DHT22;5203;48.976;8.306;2023-06-04T08:02:37;21.10;36.40
10316;DHT22;5203;48.976;8.306;2023-06-04T08:05:03;21.20;35.40
10316;DHT22;5203;48.976;8.306;2023-06-04T08:07:30;21.30;35.60
10316;DHT22;5203;48.976;8.306;2023-06-04T08:09:56;21.50;36.40
10316;DHT22;5203;48.976;8.306;2023-06-04T08:12:22;21.70;35.90
10316;DHT22;5203;48.976;8.306;2023-06-04T08:14:48;21.70;35.60
10316;DHT22;5203;48.976;8.306;2023-06-04T08:17:15;21.60;35.80
10316;DHT22;5203;48.976;8.306;2023-06-04T08:19:41;21.80;36.10
10316;DHT22;5203;48.976;8.306;2023-06-04T08:22:07;21.70;35.40
10316;DHT22;5203;48.976;8.306;2023-06-04T08:24:34;21.80;35.90
10316;DHT22;5203;48.976;8.306;2023-06-04T08:27:00;22.00;35.30
10316;DHT22;5203;48.976;8.306;2023-06-04T08:29:26;22.20;35.20
10316;DHT22;5203;48.976;8.306;2023-06-04T08:31:51;22.30;35.40
10316;DHT22;5203;48.976;8.306;2023-06-04T08:34:17;22.30;36.00
10316;DHT22;5203;48.976;8.306;2023-06-04T08:36:42;22.40;35.30
10316;DHT22;5203;48.976;8.306;2023-06-04T08:39:08;22.30;35.80
10316;DHT22;5203;48.976;8.306;2023-06-04T08:41:43;22.30;35.40
10316;DHT22;5203;48.976;8.306;2023-06-04T08:44:09;22.40;35.60
10316;DHT22;5203;48.976;8.306;2023-06-04T08:46:38;22.60;35.10
10316;DHT22;5203;48.976;8.306;2023-06-04T08:49:07;22.70;34.70
10316;DHT22;5203;48.976;8.306;2023-06-04T08:51:35;22.50;35.20
10316;DHT22;5203;48.976;8.306;2023-06-04T08:54:04;22.50;35.40
10316;DHT22;5203;48.976;8.306;2023-06-04T08:56:30;22.70;35.10
10316;DHT22;5203;48.976;8.306;2023-06-04T08:59:01;22.80;34.80
10316;DHT22;5203;48.976;8.306;2023-06-04T09:01:28;22.90;34.90
10316;DHT22;5203;48.976;8.306;2023-06-04T09:03:54;23.00;35.10
10316;DHT22;5203;48.976;8.306;2023-06-04T09:06:26;23.10;34.00
10316;DHT22;5203;48.976;8.306;2023-06-04T09:08:54;23.30;34.00
10316;DHT22;5203;48.976;8.306;2023-06-04T09:11:22;23.40;33.90
10316;DHT22;5203;48.976;8.306;2023-06-04T09:13:50;23.30;34.20
10316;DHT22;5203;48.976;8.306;2023-06-04T09:16:16;23.60;33.90
10316;DHT22;5203;48.976;8.306;2023-06-04T09:18:42;23.70;32.90
10316;DHT22;5203;48.976;8.306;2023-06-04T09:21:09;23.70;33.20
10316;DHT22;5203;48.976;8.306;2023-06-04T09:23:45;23.70;33.00
10316;DHT22;5203;48.976;8.306;2023-06-04T09:26:11;23.90;33.20
10316;DHT22;5203;48.976;8.306;2023-06-04T09:28:45;23.70;33.40
10316;DHT22;5203;48.976;8.306;2023-06-04T09:31:15;23.60;33.70
10316;DHT22;5203;48.976;8.306;2023-06-04T09:33:50;23.90;33.60
10316;DHT22;5203;48.976;8.306;2023-06-04T09:36:16;24.10;33.10
10316;DHT22;5203;48.976;8.306;2023-06-04T09:38:42;24.40;32.00
10316;DHT22;5203;48.976;8.306;2023-06-04T09:41:16;24.60;32.00
10316;DHT22;5203;48.976;8.306;2023-06-04T09:43:45;24.60;32.00
10316;DHT22;5203;48.976;8.306;2023-06-04T09:46:15;24.80;31.80
10316;DHT22;5203;48.976;8.306;2023-06-04T09:48:41;25.00;31.50
10316;DHT22;5203;48.976;8.306;2023-06-04T09:51:08;25.10;30.60
10316;DHT22;5203;48.976;8.306;2023-06-04T09:53:34;25.50;30.00
10316;DHT22;5203;48.976;8.306;2023-06-04T09:56:00;25.80;29.00
10316;DHT22;5203;48.976;8.306;2023-06-04T09:58:27;26.10;29.40
10316;DHT22;5203;48.976;8.306;2023-06-04T10:00:58;26.00;28.80
10316;DHT22;5203;48.976;8.306;2023-06-04T10:03:24;26.20;29.00
10316;DHT22;5203;48.976;8.306;2023-06-04T10:05:59;26.60;28.70
10316;DHT22;5203;48.976;8.306;2023-06-04T10:08:26;26.80;27.50
10316;DHT22;5203;48.976;8.306;2023-06-04T10:11:00;26.70;27.70
10316;DHT22;5203;48.976;8.306;2023-06-04T10:13:29;27.00;28.20
10316;DHT22;5203;48.976;8.306;2023-06-04T10:15:58;27.20;27.20
10316;DHT22;5203;48.976;8.306;2023-06-04T10:18:27;27.40;26.60
10316;DHT22;5203;48.976;8.306;2023-06-04T10:20:55;27.40;26.60
10316;DHT22;5203;48.976;8.306;2023-06-04T10:23:22;27.50;26.50
10316;DHT22;5203;48.976;8.306;2023-06-04T10:25:51;27.60;26.60
10316;DHT22;5203;48.976;8.306;2023-06-04T10:28:21;27.60;26.10
10316;DHT22;5203;48.976;8.306;2023-06-04T10:30:48;27.70;25.90
10316;DHT22;5203;48.976;8.306;2023-06-04T10:33:19;27.80;26.20
10316;DHT22;5203;48.976;8.306;2023-06-04T10:35:46;27.80;25.80
10316;DHT22;5203;48.976;8.306;2023-06-04T10:38:13;27.90;26.10
10316;DHT22;5203;48.976;8.306;2023-06-04T10:40:39;28.30;25.90
10316;DHT22;5203;48.976;8.306;2023-06-04T10:43:15;28.40;25.70
10316;DHT22;5203;48.976;8.306;2023-06-04T10:45:44;28.30;25.90
10316;DHT22;5203;48.976;8.306;2023-06-04T10:48:11;28.50;25.50
10316;DHT22;5203;48.976;8.306;2023-06-04T10:50:53;28.60;25.30
10316;DHT22;5203;48.976;8.306;2023-06-04T10:53:19;28.30;25.20
10316;DHT22;5203;48.976;8.306;2023-06-04T10:55:46;28.40;25.30
10316;DHT22;5203;48.976;8.306;2023-06-04T10:58:12;28.70;24.70
10316;DHT22;5203;48.976;8.306;2023-06-04T11:00:43;28.90;24.40
10316;DHT22;5203;48.976;8.306;2023-06-04T11:03:11;29.10;25.10
10316;DHT22;5203;48.976;8.306;2023-06-04T11:08:04;28.90;24.40
10316;DHT22;5203;48.976;8.306;2023-06-04T11:10:36;29.10;24.80
10316;DHT22;5203;48.976;8.306;2023-06-04T11:13:03;28.90;24.10
10316;DHT22;5203;48.976;8.306;2023-06-04T11:18:12;29.00;24.40
10316;DHT22;5203;48.976;8.306;2023-06-04T11:20:38;29.00;23.80
10316;DHT22;5203;48.976;8.306;2023-06-04T11:23:04;29.40;23.80
10316;DHT22;5203;48.976;8.306;2023-06-04T11:25:31;29.40;23.10
10316;DHT22;5203;48.976;8.306;2023-06-04T11:27:58;29.60;23.10
10316;DHT22;5203;48.976;8.306;2023-06-04T11:30:25;29.80;22.80
10316;DHT22;5203;48.976;8.306;2023-06-04T11:33:03;29.50;23.00
10316;DHT22;5203;48.976;8.306;2023-06-04T11:35:29;29.60;22.80
10316;DHT22;5203;48.976;8.306;2023-06-04T11:37:57;29.20;22.80
10316;DHT22;5203;48.976;8.306;2023-06-04T11:40:23;29.90;22.80
10316;DHT22;5203;48.976;8.306;2023-06-04T11:42:50;29.80;22.30
10316;DHT22;5203;48.976;8.306;2023-06-04T11:45:17;29.90;22.30
10316;DHT22;5203;48.976;8.306;2023-06-04T11:47:52;30.30;21.80
10316;DHT22;5203;48.976;8.306;2023-06-04T11:50:19;30.40;21.40
10316;DHT22;5203;48.976;8.306;2023-06-04T11:52:47;30.50;21.90
10316;DHT22;5203;48.976;8.306;2023-06-04T11:55:13;30.70;21.40
10316;DHT22;5203;48.976;8.306;2023-06-04T11:57:39;30.80;21.40
10316;DHT22;5203;48.976;8.306;2023-06-04T12:00:07;30.80;21.10
10316;DHT22;5203;48.976;8.306;2023-06-04T12:02:36;30.70;21.00
10316;DHT22;5203;48.976;8.306;2023-06-04T12:05:16;31.00;20.90
10316;DHT22;5203;48.976;8.306;2023-06-04T12:07:44;31.20;20.70
10316;DHT22;5203;48.976;8.306;2023-06-04T12:10:11;31.00;20.80
10316;DHT22;5203;48.976;8.306;2023-06-04T12:12:39;31.00;20.80
10316;DHT22;5203;48.976;8.306;2023-06-04T12:15:07;31.00;20.70
10316;DHT22;5203;48.976;8.306;2023-06-04T12:17:33;30.90;20.00
10316;DHT22;5203;48.976;8.306;2023-06-04T12:19:58;30.80;20.20
10316;DHT22;5203;48.976;8.306;2023-06-04T12:22:25;30.90;20.70
10316;DHT22;5203;48.976;8.306;2023-06-04T12:24:52;31.20;20.60
10316;DHT22;5203;48.976;8.306;2023-06-04T12:27:20;31.50;20.00
10316;DHT22;5203;48.976;8.306;2023-06-04T12:29:57;31.40;20.60
10316;DHT22;5203;48.976;8.306;2023-06-04T12:32:23;31.50;20.60
10316;DHT22;5203;48.976;8.306;2023-06-04T12:34:49;31.80;20.30
10316;DHT22;5203;48.976;8.306;2023-06-04T12:37:15;31.80;19.60
10316;DHT22;5203;48.976;8.306;2023-06-04T12:39:40;31.80;20.10
10316;DHT22;5203;48.976;8.306;2023-06-04T12:42:06;31.80;20.40
10316;DHT22;5203;48.976;8.306;2023-06-04T12:44:35;31.70;20.00
10316;DHT22;5203;48.976;8.306;2023-06-04T12:47:02;31.50;20.70
10316;DHT22;5203;48.976;8.306;2023-06-04T12:49:27;31.90;19.90
10316;DHT22;5203;48.976;8.306;2023-06-04T12:51:53;32.10;19.90
10316;DHT22;5203;48.976;8.306;2023-06-04T12:54:18;31.90;19.50
10316;DHT22;5203;48.976;8.306;2023-06-04T12:56:44;32.00;20.40
10316;DHT22;5203;48.976;8.306;2023-06-04T12:59:10;32.50;19.70
10316;DHT22;5203;48.976;8.306;2023-06-04T13:01:35;32.70;19.40
10316;DHT22;5203;48.976;8.306;2023-06-04T13:04:03;32.50;19.90
10316;DHT22;5203;48.976;8.306;2023-06-04T13:06:29;32.60;19.50
10316;DHT22;5203;48.976;8.306;2023-06-04T13:08:55;32.90;19.30
10316;DHT22;5203;48.976;8.306;2023-06-04T13:11:21;32.90;19.30
10316;DHT22;5203;48.976;8.306;2023-06-04T13:13:47;32.90;19.50
10316;DHT22;5203;48.976;8.306;2023-06-04T13:16:13;32.90;19.40
10316;DHT22;5203;48.976;8.306;2023-06-04T13:18:38;32.70;19.70
10316;DHT22;5203;48.976;8.306;2023-06-04T13:21:04;33.00;19.60
10316;DHT22;5203;48.976;8.306;2023-06-04T13:23:30;33.00;19.70
10316;DHT22;5203;48.976;8.306;2023-06-04T13:25:56;33.20;19.40
10316;DHT22;5203;48.976;8.306;2023-06-04T13:28:21;33.40;20.10
10316;DHT22;5203;48.976;8.306;2023-06-04T13:30:47;34.00;19.60
10316;DHT22;5203;48.976;8.306;2023-06-04T13:33:13;34.00;19.00
10316;DHT22;5203;48.976;8.306;2023-06-04T13:35:39;33.80;19.30
10316;DHT22;5203;48.976;8.306;2023-06-04T13:38:05;33.80;19.40
10316;DHT22;5203;48.976;8.306;2023-06-04T13:40:33;34.00;19.40
10316;DHT22;5203;48.976;8.306;2023-06-04T13:42:59;33.80;19.10
10316;DHT22;5203;48.976;8.306;2023-06-04T13:45:24;33.00;20.60
10316;DHT22;5203;48.976;8.306;2023-06-04T13:47:50;33.10;20.30
10316;DHT22;5203;48.976;8.306;2023-06-04T13:50:16;33.40;20.00
10316;DHT22;5203;48.976;8.306;2023-06-04T13:52:42;32.80;19.50
10316;DHT22;5203;48.976;8.306;2023-06-04T13:55:08;32.90;19.80
10316;DHT22;5203;48.976;8.306;2023-06-04T13:57:34;32.70;20.20
10316;DHT22;5203;48.976;8.306;2023-06-04T14:00:00;32.90;19.60
10316;DHT22;5203;48.976;8.306;2023-06-04T14:02:25;32.70;19.90
10316;DHT22;5203;48.976;8.306;2023-06-04T14:04:53;32.60;20.10
10316;DHT22;5203;48.976;8.306;2023-06-04T14:07:19;32.90;19.90
10316;DHT22;5203;48.976;8.306;2023-06-04T14:09:44;33.10;20.20
10316;DHT22;5203;48.976;8.306;2023-06-04T14:12:10;33.40;19.20
10316;DHT22;5203;48.976;8.306;2023-06-04T14:14:36;33.90;18.90
10316;DHT22;5203;48.976;8.306;2023-06-04T14:17:05;33.80;18.80
10316;DHT22;5203;48.976;8.306;2023-06-04T14:19:32;34.30;18.50
10316;DHT22;5203;48.976;8.306;2023-06-04T14:21:58;34.20;18.40
10316;DHT22;5203;48.976;8.306;2023-06-04T14:24:24;34.30;18.60
10316;DHT22;5203;48.976;8.306;2023-06-04T14:26:49;34.90;18.20
10316;DHT22;5203;48.976;8.306;2023-06-04T14:29:15;35.20;18.00
10316;DHT22;5203;48.976;8.306;2023-06-04T14:31:41;34.60;17.50
10316;DHT22;5203;48.976;8.306;2023-06-04T14:34:06;34.60;17.60
10316;DHT22;5203;48.976;8.306;2023-06-04T14:36:34;34.50;17.60
10316;DHT22;5203;48.976;8.306;2023-06-04T14:39:00;34.50;17.00
10316;DHT22;5203;48.976;8.306;2023-06-04T14:41:25;34.20;17.60
10316;DHT22;5203;48.976;8.306;2023-06-04T14:43:52;34.20;17.00
10316;DHT22;5203;48.976;8.306;2023-06-04T14:46:18;33.80;17.00
10316;DHT22;5203;48.976;8.306;2023-06-04T14:48:44;33.90;17.00
10316;DHT22;5203;48.976;8.306;2023-06-04T14:51:09;34.10;17.20
10316;DHT22;5203;48.976;8.306;2023-06-04T14:53:35;34.50;16.50
10316;DHT22;5203;48.976;8.306;2023-06-04T14:56:04;34.30;16.30
10316;DHT22;5203;48.976;8.306;2023-06-04T14:58:30;34.30;16.70
10316;DHT22;5203;48.976;8.306;2023-06-04T15:00:56;34.30;16.80
10316;DHT22;5203;48.976;8.306;2023-06-04T15:03:25;34.90;16.10
10316;DHT22;5203;48.976;8.306;2023-06-04T15:05:51;35.00;16.40
10316;DHT22;5203;48.976;8.306;2023-06-04T15:08:17;34.60;16.00
10316;DHT22;5203;48.976;8.306;2023-06-04T15:10:43;34.80;15.70
10316;DHT22;5203;48.976;8.306;2023-06-04T15:13:09;35.10;16.00
10316;DHT22;5203;48.976;8.306;2023-06-04T15:15:35;34.80;15.80
10316;DHT22;5203;48.976;8.306;2023-06-04T15:18:00;34.70;16.10
10316;DHT22;5203;48.976;8.306;2023-06-04T15:20:26;34.80;15.90
10316;DHT22;5203;48.976;8.306;2023-06-04T15:22:55;34.60;15.60
10316;DHT22;5203;48.976;8.306;2023-06-04T15:25:20;34.40;15.60
10316;DHT22;5203;48.976;8.306;2023-06-04T15:27:46;34.80;15.30
10316;DHT22;5203;48.976;8.306;2023-06-04T15:30:12;34.50;15.50
10316;DHT22;5203;48.976;8.306;2023-06-04T15:32:38;34.50;15.50
10316;DHT22;5203;48.976;8.306;2023-06-04T15:35:04;34.50;15.20
10316;DHT22;5203;48.976;8.306;2023-06-04T15:37:29;34.80;15.00
10316;DHT22;5203;48.976;8.306;2023-06-04T15:39:55;35.10;15.00
10316;DHT22;5203;48.976;8.306;2023-06-04T15:42:23;35.00;15.50
10316;DHT22;5203;48.976;8.306;2023-06-04T15:44:49;35.00;15.20
10316;DHT22;5203;48.976;8.306;2023-06-04T15:47:14;35.00;15.10
10316;DHT22;5203;48.976;8.306;2023-06-04T15:49:40;35.00;15.20
10316;DHT22;5203;48.976;8.306;2023-06-04T15:52:06;34.80;15.30